Time;durP1;ratioP1;P1;durP2;ratioP2;P2;SDS_P1;SDS_P2;PMS_P1;PMS_P2;Temp;Humidity;BMP_temperature;BMP_pressure;BME280_temperature;BME280_humidity;BME280_pressure;Samples;Min_cycle;Max_cycle;Signal;HPM_P1;HPM_P2
2022/01/08 00:00:38;;;;;;;2.30;1.33;;;2.90;82.60;;;3.19;62.78;97113.19;4967555;28;20050;-37
2022/01/08 00:03:06;;;;;;;3.80;1.20;;;3.00;82.60;;;3.21;62.63;97108.63;4967306;28;20358;-37
2022/01/08 00:05:34;;;;;;;3.93;1.53;;;3.00;82.60;;;3.22;62.97;97103.25;4970321;28;20280;-37
2022/01/08 00:08:02;;;;;;;2.97;1.50;;;3.00;82.50;;;3.21;62.69;97096.31;4971401;28;20051;-37
2022/01/08 00:10:31;;;;;;;1.67;1.00;;;3.00;82.30;;;3.23;62.76;97086.47;4971970;28;20051;-37
2022/01/08 00:13:04;;;;;;;2.00;1.23;;;3.00;82.30;;;3.25;62.80;97083.72;4971847;28;20043;-37
2022/01/08 00:15:33;;;;;;;1.73;1.27;;;3.00;82.30;;;3.30;62.96;97071.03;4971751;28;20544;-37
2022/01/08 00:18:01;;;;;;;2.23;1.30;;;3.10;82.50;;;3.30;62.72;97061.34;4971337;28;20064;-37
2022/01/08 00:20:29;;;;;;;1.57;1.23;;;3.10;82.40;;;3.32;62.37;97054.16;4971399;28;20244;-37
2022/01/08 00:22:57;;;;;;;4.27;2.00;;;3.10;82.00;;;3.34;62.79;97044.31;4971380;28;20065;-37
2022/01/08 00:25:25;;;;;;;11.37;5.17;;;3.10;81.80;;;3.35;62.77;97034.63;4971254;28;20054;-37
2022/01/08 00:27:53;;;;;;;13.87;4.70;;;3.10;81.90;;;3.30;62.65;97042.09;4971545;28;20058;-37
2022/01/08 00:30:21;;;;;;;12.20;3.80;;;3.10;81.40;;;3.29;62.73;97041.22;4971024;28;20245;-37
2022/01/08 00:32:49;;;;;;;11.80;5.27;;;3.10;81.10;;;3.35;62.33;97046.00;4970619;28;20372;-38
2022/01/08 00:35:17;;;;;;;18.87;6.80;;;3.20;81.10;;;3.38;62.48;97036.19;4971128;28;20062;-37
2022/01/08 00:37:45;;;;;;;24.23;8.53;;;3.20;81.10;;;3.40;62.40;97029.81;4971530;28;20053;-37
2022/01/08 00:40:13;;;;;;;43.93;16.13;;;3.20;81.10;;;3.45;62.32;97032.88;4971584;28;20057;-37
2022/01/08 00:42:41;;;;;;;29.33;11.03;;;3.20;81.00;;;3.47;62.41;97032.72;4985389;28;20065;-37
2022/01/08 00:45:11;;;;;;;18.40;8.70;;;3.20;80.80;;;3.45;61.90;97019.72;4969793;28;20055;-37
2022/01/08 00:47:38;;;;;;;27.87;9.70;;;3.30;80.80;;;3.49;61.93;97029.03;4970943;28;20272;-37
2022/01/08 00:50:07;;;;;;;20.63;7.50;;;3.30;80.40;;;3.47;61.63;97017.81;4971850;28;20057;-37
2022/01/08 00:52:35;;;;;;;25.97;8.17;;;3.30;80.40;;;3.49;62.11;97015.00;4971228;28;20062;-37
2022/01/08 00:55:03;;;;;;;8.77;3.67;;;3.30;80.30;;;3.49;62.25;97010.59;4970914;28;20059;-37
2022/01/08 00:57:31;;;;;;;23.83;8.47;;;3.30;80.00;;;3.48;62.26;97008.91;4971899;28;20050;-37
2022/01/08 00:59:59;;;;;;;16.60;6.20;;;3.30;80.50;;;3.50;61.60;97007.00;4971717;28;20063;-37
2022/01/08 01:02:26;;;;;;;11.67;4.50;;;3.40;80.40;;;3.47;62.25;97002.00;4970754;28;20249;-37
2022/01/08 01:04:54;;;;;;;7.40;2.67;;;3.40;79.90;;;3.51;62.21;96995.50;4969672;28;20061;-37
2022/01/08 01:07:22;;;;;;;14.83;5.43;;;3.40;80.30;;;3.55;62.24;96993.44;4970463;28;20261;-37
2022/01/08 01:09:51;;;;;;;17.47;8.87;;;3.50;80.10;;;3.57;62.14;96991.53;4969730;28;20056;-37
2022/01/08 01:12:19;;;;;;;6.53;2.90;;;3.40;79.90;;;3.54;62.15;96992.59;4970094;28;20055;-37
2022/01/08 01:15:11;;;;;;;12.10;5.17;;;3.40;80.00;;;3.57;61.75;96986.25;4969809;28;20051;-37
2022/01/08 01:17:39;;;;;;;6.67;3.50;;;3.40;80.10;;;3.57;62.18;96981.00;4968907;28;20065;-37
2022/01/08 01:20:10;;;;;;;5.53;2.73;;;3.40;80.10;;;3.60;61.58;96978.06;4969834;28;20385;-37
2022/01/08 01:23:00;;;;;;;4.00;2.10;;;3.40;80.10;;;3.54;61.76;96968.09;4969861;28;20256;-37
2022/01/08 01:25:51;;;;;;;5.20;2.33;;;3.40;79.90;;;3.60;61.78;96966.72;4970252;28;20069;-37
2022/01/08 01:47:02;;;;;;;2.20;1.40;;;3.40;79.70;;;3.62;61.88;96888.44;4968927;28;20054;-37
2022/01/08 01:49:39;;;;;;;2.50;1.40;;;3.50;80.40;;;3.64;61.72;96883.88;4969960;28;20046;-37
2022/01/08 01:52:12;;;;;;;2.17;1.10;;;3.40;80.40;;;3.65;61.81;96870.59;4970069;28;20055;-37
2022/01/08 01:54:41;;;;;;;2.03;1.23;;;3.40;80.00;;;3.69;62.09;96864.06;4969934;28;20055;-37
2022/01/08 01:57:16;;;;;;;2.70;1.43;;;3.50;80.70;;;3.69;62.27;96843.00;4970119;28;20371;-37
2022/01/08 01:59:44;;;;;;;2.77;1.47;;;3.50;80.60;;;3.69;61.81;96853.53;4969946;28;20068;-37
2022/01/08 02:02:12;;;;;;;2.50;1.50;;;3.50;80.00;;;3.67;61.56;96855.47;4970415;28;20219;-37
2022/01/08 02:04:40;;;;;;;3.23;1.50;;;3.50;80.00;;;3.65;62.17;96846.06;4968500;28;20339;-37
2022/01/08 02:07:08;;;;;;;3.37;1.50;;;3.50;80.10;;;3.63;61.73;96840.94;4969099;28;20051;-37
2022/01/08 02:09:39;;;;;;;3.47;1.47;;;3.60;80.00;;;3.64;61.40;96847.03;4969022;28;20245;-37
2022/01/08 02:12:12;;;;;;;1.90;1.20;;;3.50;80.10;;;3.66;62.29;96842.44;4969553;28;20081;-37
2022/01/08 02:14:40;;;;;;;2.80;1.40;;;3.50;80.30;;;3.70;62.37;96841.19;4970038;28;20063;-37
2022/01/08 02:17:09;;;;;;;2.63;1.70;;;3.50;80.70;;;3.72;62.24;96836.63;4969544;28;20058;-37
2022/01/08 02:19:38;;;;;;;1.77;1.00;;;3.50;80.90;;;3.66;62.01;96826.66;4970107;28;20047;-37
2022/01/08 02:22:10;;;;;;;1.57;1.10;;;3.50;81.20;;;3.67;62.31;96820.44;4967676;28;20054;-37
2022/01/08 02:24:38;;;;;;;3.37;1.40;;;3.50;81.80;;;3.69;62.46;96814.06;4969667;28;20230;-37
2022/01/08 02:27:06;;;;;;;2.37;1.47;;;3.50;82.40;;;3.67;62.84;96808.09;4968378;28;20065;-37
2022/01/08 02:29:34;;;;;;;2.57;1.40;;;3.50;83.00;;;3.66;63.20;96793.25;4968316;28;20055;-37
2022/01/08 02:32:12;;;;;;;2.13;1.40;;;3.60;84.00;;;3.66;63.78;96781.91;4968856;28;20054;-37
2022/01/08 02:34:41;;;;;;;3.00;1.37;;;3.50;85.10;;;3.61;63.54;96789.41;4968683;28;20061;-37
2022/01/08 02:37:11;;;;;;;2.47;1.80;;;3.50;86.20;;;3.63;63.79;96784.84;4982616;28;20368;-37
2022/01/08 02:39:41;;;;;;;2.00;1.20;;;3.40;86.70;;;3.64;63.45;96787.31;4967822;28;20073;-37
2022/01/08 02:42:14;;;;;;;3.33;1.63;;;3.40;87.20;;;3.59;64.23;96780.78;4968469;28;20050;-37
2022/01/08 02:44:43;;;;;;;2.40;1.60;;;3.40;87.90;;;3.57;64.46;96762.53;4968657;28;20058;-37
2022/01/08 02:47:16;;;;;;;1.80;1.30;;;3.40;88.50;;;3.61;64.27;96765.72;4968413;28;20063;-37
2022/01/08 02:49:46;;;;;;;3.47;1.60;;;3.40;88.90;;;3.59;64.30;96770.25;4968678;28;20060;-37
2022/01/08 02:52:13;;;;;;;2.73;1.30;;;3.40;89.00;;;3.57;64.88;96770.44;4969073;28;20705;-37
2022/01/08 02:54:41;;;;;;;2.53;1.30;;;3.40;88.90;;;3.49;65.13;96757.97;4969548;28;20057;-37
2022/01/08 02:57:10;;;;;;;2.37;1.47;;;3.40;89.70;;;3.50;64.41;96749.06;4968254;28;20049;-37
2022/01/08 02:59:37;;;;;;;2.63;1.63;;;3.30;89.80;;;3.50;65.00;96741.19;4969200;28;20379;-37
2022/01/08 03:02:05;;;;;;;3.20;1.60;;;3.30;89.90;;;3.46;65.00;96745.06;4967854;28;20047;-37
2022/01/08 03:04:33;;;;;;;2.97;1.53;;;3.30;90.60;;;3.42;65.47;96746.31;4967964;28;20055;-37
2022/01/08 03:07:01;;;;;;;2.27;1.57;;;3.20;91.50;;;3.43;65.29;96734.84;4968429;28;20064;-37
2022/01/08 03:09:30;;;;;;;2.23;1.40;;;3.20;91.60;;;3.37;65.68;96730.09;4969036;28;20053;-37
2022/01/08 03:11:58;;;;;;;2.63;1.50;;;3.20;92.20;;;3.37;65.36;96729.28;4968663;28;20051;-37
2022/01/08 03:14:25;;;;;;;3.30;1.77;;;3.20;92.50;;;3.41;65.86;96738.56;4968870;28;20049;-37
2022/01/08 03:16:53;;;;;;;1.97;1.43;;;3.20;92.90;;;3.35;65.99;96725.00;4967935;28;20053;-37
2022/01/08 03:19:22;;;;;;;2.43;1.73;;;3.20;93.80;;;3.37;66.40;96727.47;4967993;28;20050;-37
2022/01/08 03:21:53;;;;;;;3.00;1.67;;;3.20;94.70;;;3.39;66.52;96730.78;4968527;28;20386;-37
2022/01/08 03:24:29;;;;;;;2.80;1.63;;;3.20;95.30;;;3.36;66.25;96720.56;4983481;28;20369;-37
2022/01/08 03:26:57;;;;;;;3.83;1.87;;;3.20;96.00;;;3.34;66.73;96722.50;4966834;28;20073;-37
2022/01/08 03:29:27;;;;;;;3.63;1.80;;;3.20;97.20;;;3.28;67.21;96717.81;4968790;28;20051;-37
2022/01/08 03:31:55;;;;;;;3.87;1.77;;;3.10;98.70;;;3.30;67.10;96723.75;4967892;28;20053;-37
2022/01/08 03:34:23;;;;;;;3.97;1.83;;;3.10;99.60;;;3.28;67.04;96716.00;4968875;28;20057;-37
2022/01/08 03:36:51;;;;;;;3.30;1.57;;;3.10;99.90;;;3.24;66.98;96714.63;4968748;28;20058;-37
2022/01/08 03:39:20;;;;;;;3.07;1.87;;;3.10;99.90;;;3.20;67.58;96720.25;4967092;28;20051;-37
2022/01/08 03:41:48;;;;;;;3.27;1.57;;;3.00;99.90;;;3.15;67.60;96711.00;4968532;28;20245;-37
2022/01/08 03:44:16;;;;;;;2.60;1.80;;;3.00;99.90;;;3.12;68.35;96713.06;4967996;28;20059;-37
2022/01/08 03:46:44;;;;;;;3.20;2.10;;;2.90;99.90;;;3.16;67.55;96717.09;4967984;28;20058;-37
2022/01/08 03:51:46;;;;;;;2.33;1.75;;;2.90;99.90;;;3.14;68.09;96713.75;4969122;28;20058;-37
2022/01/08 03:54:13;;;;;;;2.50;1.70;;;2.90;99.90;;;3.15;67.82;96721.50;4966605;28;20047;-37
2022/01/08 03:56:41;;;;;;;3.00;1.60;;;2.90;99.90;;;3.13;68.06;96714.75;4968558;28;20047;-37
2022/01/08 03:59:09;;;;;;;2.97;1.67;;;2.90;99.90;;;3.13;67.96;96714.75;4967999;28;20329;-36
2022/01/08 04:01:37;;;;;;;3.67;1.87;;;2.90;99.90;;;3.08;68.05;96719.56;4968077;28;20090;-36
2022/01/08 04:04:05;;;;;;;2.53;1.60;;;2.80;99.90;;;3.03;68.76;96720.00;4967881;28;20054;-36
2022/01/08 04:06:33;;;;;;;2.20;1.67;;;2.80;99.90;;;3.07;68.09;96715.28;4968278;28;20055;-36
2022/01/08 04:09:01;;;;;;;2.23;1.93;;;2.80;99.90;;;3.10;68.20;96715.00;4967885;28;20411;-36
2022/01/08 04:11:29;;;;;;;3.13;2.13;;;2.90;99.90;;;3.10;68.47;96723.75;4966824;28;20047;-36
2022/01/08 04:13:57;;;;;;;3.47;1.80;;;2.90;99.90;;;3.10;68.40;96718.47;4967920;28;20039;-36
2022/01/08 04:16:30;;;;;;;3.20;1.70;;;2.90;99.90;;;3.05;69.04;96719.84;4967458;28;20046;-36
2022/01/08 04:18:59;;;;;;;2.60;1.67;;;2.90;99.90;;;3.07;68.86;96721.38;4967297;28;20371;-36
2022/01/08 04:24:08;;;;;;;2.63;1.50;;;2.90;99.90;;;3.10;68.91;96721.13;4967488;28;20057;-36
2022/01/08 04:26:36;;;;;;;2.03;1.30;;;3.00;99.90;;;3.13;68.55;96733.16;4967905;28;20058;-36
2022/01/08 04:29:06;;;;;;;1.80;1.20;;;3.00;99.90;;;3.12;68.96;96728.84;4966968;28;20046;-36
2022/01/08 04:31:33;;;;;;;2.70;1.70;;;3.00;99.90;;;3.15;69.25;96739.91;4967140;28;20046;-36
2022/01/08 04:34:01;;;;;;;3.93;2.00;;;3.00;99.90;;;3.12;68.95;96753.38;4966809;28;20057;-36
2022/01/08 04:36:29;;;;;;;1.60;1.27;;;3.10;99.90;;;3.20;68.60;96751.84;4968334;28;20055;-37
2022/01/08 04:38:57;;;;;;;2.40;1.30;;;3.00;99.90;;;3.25;68.19;96760.97;4966642;28;20046;-36
2022/01/08 04:41:25;;;;;;;1.87;1.20;;;3.10;99.90;;;3.25;68.43;96760.16;4966598;28;20061;-36
2022/01/08 04:43:52;;;;;;;3.83;1.80;;;3.10;99.90;;;3.24;69.06;96774.25;4968467;28;20057;-37
2022/01/08 04:46:20;;;;;;;7.57;3.63;;;3.00;99.90;;;3.22;68.58;96777.06;4964001;28;20058;-37
2022/01/08 04:48:48;;;;;;;16.80;6.40;;;3.10;99.90;;;3.15;69.22;96789.91;4966945;28;20065;-37
2022/01/08 04:51:16;;;;;;;3.37;2.20;;;3.00;99.90;;;3.14;69.01;96792.66;4966718;28;20055;-36
2022/01/08 04:53:44;;;;;;;2.40;1.37;;;3.00;99.90;;;3.07;68.95;96797.63;4969159;28;20043;-36
2022/01/08 04:56:16;;;;;;;1.03;0.87;;;2.90;99.90;;;3.08;68.98;96801.09;4971464;28;20051;-36
2022/01/08 04:58:44;;;;;;;1.77;1.00;;;2.90;99.90;;;3.02;69.61;96805.09;4969742;28;20047;-36
2022/01/08 05:01:17;;;;;;;1.60;0.90;;;2.80;99.90;;;3.04;69.58;96807.59;4969489;28;20059;-36
2022/01/08 05:03:45;;;;;;;1.65;0.73;;;2.90;99.90;;;3.02;69.59;96822.69;4986135;28;20050;-36
2022/01/08 05:06:13;;;;;;;1.17;0.67;;;2.80;99.90;;;3.01;69.05;96834.19;4971065;28;20057;-36
2022/01/08 05:08:41;;;;;;;0.97;0.73;;;2.80;99.90;;;2.98;69.81;96829.16;4971272;28;20367;-37
2022/01/08 05:11:09;;;;;;;1.20;0.70;;;2.80;99.90;;;3.00;69.42;96827.25;4970168;28;20049;-37
2022/01/08 05:13:38;;;;;;;0.30;0.30;;;2.80;99.90;;;2.97;69.33;96841.50;4970460;28;20182;-36
2022/01/08 05:16:06;;;;;;;0.97;0.57;;;2.80;99.90;;;2.86;70.04;96828.44;4971130;28;20055;-36
2022/01/08 05:18:34;;;;;;;0.57;0.43;;;2.70;99.90;;;2.81;70.25;96839.38;4970175;28;20355;-36
2022/01/08 05:23:42;;;;;;;0.60;0.60;;;2.60;99.90;;;2.59;71.07;96850.06;4971087;28;20061;-37
2022/01/08 05:26:10;;;;;;;0.73;0.60;;;2.50;99.90;;;2.60;71.28;96851.69;4970824;28;20059;-36
2022/01/08 05:28:38;;;;;;;0.90;0.67;;;2.50;99.90;;;2.50;72.53;96872.66;4969954;28;20093;-37
2022/01/08 05:31:06;;;;;;;0.87;0.70;;;2.50;99.90;;;2.42;72.87;96859.34;4970960;28;20054;-37
2022/01/08 05:33:33;;;;;;;0.60;0.50;;;2.40;99.90;;;2.36;72.73;96872.06;4969677;28;20057;-37
2022/01/08 05:36:01;;;;;;;0.77;0.53;;;2.30;99.90;;;2.35;73.00;96877.44;4970624;28;20064;-36
2022/01/08 05:38:29;;;;;;;0.63;0.50;;;2.30;99.90;;;2.31;73.21;96878.66;4970163;28;20061;-36
2022/01/08 05:40:57;;;;;;;0.47;0.47;;;2.30;99.90;;;2.30;74.15;96879.63;4969237;28;20266;-36
2022/01/08 05:43:25;;;;;;;0.63;0.60;;;2.30;99.90;;;2.24;73.79;96890.63;4970419;28;20055;-36
2022/01/08 05:45:52;;;;;;;0.70;0.70;;;2.20;99.90;;;2.12;74.53;96919.56;4969239;28;20056;-36
2022/01/08 05:48:21;;;;;;;1.30;1.07;;;2.10;99.90;;;2.09;74.34;96916.34;4970550;28;20531;-36
2022/01/08 05:50:52;;;;;;;0.77;0.70;;;2.10;99.90;;;2.02;74.66;96929.16;4969826;28;20055;-36
2022/01/08 05:53:22;;;;;;;0.80;0.57;;;2.10;99.90;;;1.64;75.67;96954.09;4970111;28;20058;-36
2022/01/08 05:55:50;;;;;;;2.07;0.60;;;1.80;99.90;;;1.51;76.01;96963.88;4969216;28;20230;-36
2022/01/08 05:58:17;;;;;;;0.63;0.60;;;1.70;99.90;;;1.51;75.57;96969.13;4969861;28;20063;-36
2022/01/08 06:00:45;;;;;;;0.37;0.30;;;1.70;99.90;;;1.28;76.56;96968.31;4969695;28;20068;-36
2022/01/08 06:03:13;;;;;;;0.63;0.50;;;1.60;99.90;;;1.32;76.41;96988.13;4968961;28;20349;-36
2022/01/08 06:05:41;;;;;;;0.30;0.30;;;1.50;99.90;;;1.23;76.68;96991.47;4970979;28;20046;-36
2022/01/08 06:08:09;;;;;;;1.03;0.60;;;1.50;99.90;;;1.24;76.36;97007.09;4968367;28;20055;-36
2022/01/08 06:10:37;;;;;;;0.50;0.50;;;1.50;99.90;;;1.34;75.91;97030.81;4969111;28;20047;-37
2022/01/08 06:13:05;;;;;;;0.60;0.60;;;1.60;99.90;;;1.24;76.72;97050.81;4968919;28;20055;-36
2022/01/08 06:15:33;;;;;;;0.60;0.47;;;1.50;99.90;;;1.30;76.70;97040.69;4969631;28;20497;-36
2022/01/08 06:18:00;;;;;;;0.63;0.57;;;1.50;99.90;;;1.26;76.19;97044.50;4968499;28;20289;-36
2022/01/08 06:20:28;;;;;;;0.50;0.50;;;1.50;99.90;;;1.21;76.59;97033.53;4968713;28;20054;-36
2022/01/08 06:22:59;;;;;;;0.70;0.50;;;1.40;99.90;;;1.25;76.47;97060.34;4968900;28;20059;-36
2022/01/08 06:25:29;;;;;;;2.27;0.87;;;1.40;99.90;;;1.32;75.87;97051.91;4969175;28;20058;-36
2022/01/08 06:27:57;;;;;;;1.27;0.90;;;1.50;99.90;;;1.30;76.54;97063.44;4969870;28;20376;-36
2022/01/08 06:30:24;;;;;;;1.33;0.77;;;1.50;99.90;;;1.41;75.78;97065.25;4969860;28;20053;-36
2022/01/08 06:32:53;;;;;;;1.37;0.97;;;1.50;99.90;;;1.37;76.06;97090.88;4968096;28;20335;-36
2022/01/08 06:35:20;;;;;;;1.07;0.57;;;1.50;99.90;;;1.38;75.86;97082.91;4970168;28;20047;-36
2022/01/08 06:37:48;;;;;;;1.70;1.00;;;1.50;99.90;;;1.33;75.86;97095.50;4970653;28;20047;-36
2022/01/08 06:40:16;;;;;;;0.70;0.70;;;1.60;99.90;;;1.17;76.32;97111.59;4969511;28;20226;-36
2022/01/08 06:42:44;;;;;;;1.20;1.10;;;1.40;99.90;;;1.26;75.50;97096.09;4968122;28;20043;-36
2022/01/08 06:45:12;;;;;;;1.30;0.80;;;1.50;99.90;;;1.13;75.62;97120.63;4969692;28;20222;-36
2022/01/08 06:47:42;;;;;;;1.87;0.90;;;1.40;99.90;;;1.11;75.82;97129.56;4967757;28;20063;-36
2022/01/08 06:50:09;;;;;;;2.10;0.80;;;1.30;99.90;;;1.10;75.88;97143.63;4968864;28;20051;-36
2022/01/08 06:52:38;;;;;;;2.57;1.10;;;1.40;99.90;;;1.24;75.92;97143.44;4968044;28;20050;-36
2022/01/08 06:55:07;;;;;;;1.00;0.70;;;1.50;99.90;;;1.23;75.63;97148.78;4969089;28;20178;-36
2022/01/08 06:57:35;;;;;;;0.90;0.73;;;1.40;99.90;;;1.28;75.35;97159.75;4970003;28;20403;-36
2022/01/08 07:00:04;;;;;;;1.63;1.03;;;1.50;99.90;;;1.29;75.88;97167.50;4968426;28;20066;-36
2022/01/08 07:02:32;;;;;;;2.70;1.00;;;1.50;99.90;;;1.27;75.49;97173.84;4969448;28;20249;-36
2022/01/08 07:05:00;;;;;;;1.50;1.10;;;1.50;99.90;;;1.24;75.49;97182.78;4968666;28;20257;-36
2022/01/08 07:07:28;;;;;;;1.43;1.20;;;1.40;99.90;;;1.25;76.14;97188.84;4967066;28;20057;-36
2022/01/08 07:09:56;;;;;;;1.83;1.00;;;1.40;99.90;;;1.28;75.89;97207.81;4969410;28;20054;-36
2022/01/08 07:12:23;;;;;;;1.77;1.27;;;1.40;99.90;;;1.32;75.79;97225.00;4968834;28;20234;-36
2022/01/08 07:14:51;;;;;;;2.20;1.57;;;1.50;99.90;;;1.36;76.16;97223.81;4967260;28;20385;-36
2022/01/08 07:17:19;;;;;;;1.13;1.03;;;1.50;99.90;;;1.12;76.31;97223.00;4968736;28;20059;-36
2022/01/08 07:19:47;;;;;;;2.20;1.10;;;1.30;99.90;;;1.03;77.11;97228.91;4968891;28;20395;-36
2022/01/08 07:22:15;;;;;;;1.80;1.37;;;1.20;99.90;;;1.04;76.96;97238.47;4967174;28;20049;-36
2022/01/08 07:24:43;;;;;;;3.30;1.50;;;1.20;99.90;;;1.08;77.06;97235.50;4983302;28;20058;-36
2022/01/08 07:27:11;;;;;;;1.07;0.80;;;1.20;99.90;;;0.98;76.61;97247.59;4982643;28;20058;-36
2022/01/08 07:29:39;;;;;;;2.50;1.77;;;1.10;99.90;;;1.08;76.59;97258.25;4966955;28;20442;-36
2022/01/08 07:32:07;;;;;;;2.37;1.47;;;1.30;99.90;;;1.07;77.19;97261.84;4967357;28;20045;-36
2022/01/08 07:34:35;;;;;;;6.90;2.77;;;1.20;99.90;;;1.07;76.40;97270.53;4968198;28;20122;-36
2022/01/08 07:37:03;;;;;;;3.97;1.40;;;1.20;99.90;;;1.08;76.93;97266.13;4967852;28;20067;-36
2022/01/08 07:39:31;;;;;;;1.40;1.10;;;1.20;99.90;;;1.09;76.88;97278.31;4967654;28;20051;-36
2022/01/08 07:41:58;;;;;;;2.50;1.33;;;1.30;99.90;;;1.16;76.39;97290.00;4967012;28;20061;-36
2022/01/08 07:44:26;;;;;;;3.00;1.20;;;1.30;99.90;;;1.15;76.83;97294.41;4967546;28;20068;-37
2022/01/08 07:46:56;;;;;;;2.43;1.10;;;1.30;99.90;;;1.26;75.80;97305.91;4965084;28;20058;-36
2022/01/08 07:49:24;;;;;;;4.03;1.47;;;1.40;99.90;;;1.28;76.14;97304.88;4967643;28;20046;-36
2022/01/08 07:51:51;;;;;;;3.97;1.80;;;1.40;99.90;;;1.44;75.92;97311.63;4968833;28;20063;-36
2022/01/08 07:54:19;;;;;;;3.33;1.63;;;1.50;99.90;;;1.40;76.26;97315.38;4967422;28;20260;-36
2022/01/08 07:56:47;;;;;;;3.00;1.67;;;1.50;99.90;;;1.35;75.29;97321.81;4969481;28;20248;-36
2022/01/08 07:59:15;;;;;;;2.40;1.40;;;1.50;99.90;;;1.29;76.14;97326.69;4966723;28;20053;-36
2022/01/08 08:01:43;;;;;;;2.80;1.60;;;1.40;99.90;;;1.31;75.81;97341.34;4967681;28;20070;-36
2022/01/08 08:04:11;;;;;;;2.87;2.10;;;1.40;99.90;;;1.32;75.37;97344.81;4968287;28;20059;-36
2022/01/08 08:06:50;;;;;;;3.60;1.70;;;1.40;99.90;;;1.27;75.83;97339.88;4967578;28;20054;-36
2022/01/08 08:09:18;;;;;;;3.33;1.87;;;1.40;99.90;;;1.47;75.17;97363.84;4967081;28;20054;-36
2022/01/08 08:11:46;;;;;;;3.03;1.60;;;1.60;99.90;;;1.48;75.20;97368.16;4968433;28;20050;-36
2022/01/08 08:14:14;;;;;;;4.07;2.60;;;1.60;99.90;;;1.45;75.20;97361.31;4967792;28;20057;-36
2022/01/08 08:16:42;;;;;;;5.30;2.33;;;1.60;99.90;;;1.45;74.68;97389.34;4968675;28;20051;-36
2022/01/08 08:19:10;;;;;;;2.70;1.53;;;1.50;99.90;;;1.38;74.77;97376.69;4967052;28;20047;-36
2022/01/08 08:21:38;;;;;;;1.50;1.30;;;1.50;99.90;;;1.37;74.19;97395.16;4967735;28;20055;-36
2022/01/08 08:24:06;;;;;;;3.90;2.17;;;1.50;99.90;;;1.34;74.96;97380.47;4969151;28;20067;-36
2022/01/08 08:26:35;;;;;;;2.33;1.37;;;1.50;99.90;;;1.30;74.60;97386.03;4969938;28;20057;-36
2022/01/08 08:29:03;;;;;;;3.70;1.93;;;1.50;99.90;;;1.44;74.42;97387.69;4986269;28;20050;-36
2022/01/08 08:31:31;;;;;;;4.23;2.40;;;1.50;99.90;;;1.40;74.21;97388.84;4970757;28;20050;-36
2022/01/08 08:33:59;;;;;;;2.50;1.67;;;1.50;99.90;;;1.30;74.10;97400.00;4971699;28;20419;-36
2022/01/08 08:36:26;;;;;;;2.50;1.70;;;1.40;99.90;;;1.40;74.46;97405.44;4971769;28;20046;-36
2022/01/08 08:38:55;;;;;;;2.60;1.80;;;1.50;99.90;;;1.48;74.13;97405.72;4970973;28;20057;-36
2022/01/08 08:41:22;;;;;;;4.73;2.17;;;1.50;99.90;;;1.51;73.72;97396.78;4971090;28;20084;-36
2022/01/08 08:43:50;;;;;;;3.93;1.60;;;1.60;99.90;;;1.33;73.54;97412.88;4971038;28;20093;-36
2022/01/08 08:46:18;;;;;;;4.13;2.00;;;1.50;99.90;;;1.53;74.08;97408.00;4970937;28;20061;-36
2022/01/08 08:48:53;;;;;;;2.33;1.50;;;1.60;99.90;;;1.49;72.89;97424.91;4969869;28;20055;-36
2022/01/08 08:51:20;;;;;;;2.87;2.00;;;1.70;99.90;;;1.59;73.35;97418.06;4970939;28;20046;-36
2022/01/08 08:53:48;;;;;;;2.97;2.03;;;1.70;99.90;;;1.66;72.86;97418.47;4970782;28;20042;-36
2022/01/08 08:56:16;;;;;;;7.13;2.90;;;1.70;99.90;;;1.68;72.84;97429.69;4970053;28;20050;-36
2022/01/08 08:58:44;;;;;;;1.90;1.50;;;1.70;99.90;;;1.52;72.29;97425.53;4969759;28;20061;-36
2022/01/08 09:01:12;;;;;;;3.77;1.73;;;1.70;99.90;;;1.60;72.20;97435.47;4975057;28;20046;-36
2022/01/08 09:03:39;;;;;;;2.60;1.73;;;1.70;99.90;;;1.73;72.69;97436.28;4974261;28;20055;-36
2022/01/08 09:06:07;;;;;;;3.63;2.27;;;1.80;99.90;;;1.72;71.96;97441.63;4973432;28;20077;-36
2022/01/08 09:08:35;;;;;;;4.53;2.20;;;1.80;99.90;;;1.71;71.22;97453.09;4981424;28;20057;-36
2022/01/08 09:11:03;;;;;;;6.13;2.43;;;1.80;99.90;;;1.71;71.86;97448.66;4978109;28;20265;-36
2022/01/08 09:13:31;;;;;;;3.17;1.90;;;1.80;99.90;;;1.75;71.87;97454.53;4979637;28;20061;-36
2022/01/08 09:15:59;;;;;;;2.97;2.07;;;1.80;99.90;;;1.72;70.91;97460.81;4978266;28;20382;-36
2022/01/08 09:18:27;;;;;;;3.70;1.90;;;1.80;99.90;;;1.63;71.20;97456.25;4973591;28;20241;-36
2022/01/08 09:20:54;;;;;;;4.70;2.00;;;1.80;99.90;;;1.59;71.31;97452.19;4970899;28;20323;-36
2022/01/08 09:23:22;;;;;;;5.13;2.60;;;1.70;99.90;;;1.62;71.36;97449.31;4969843;28;20050;-36
2022/01/08 09:25:50;;;;;;;3.73;2.37;;;1.80;99.90;;;1.81;70.80;97456.72;4968408;28;20207;-36
2022/01/08 09:28:18;;;;;;;4.40;1.83;;;1.90;99.90;;;1.93;71.10;97462.84;4968571;28;20061;-36
2022/01/08 09:30:46;;;;;;;4.47;2.63;;;2.00;99.90;;;1.75;70.63;97454.53;4969745;28;20047;-36
2022/01/08 09:33:14;;;;;;;4.53;2.53;;;1.90;99.90;;;1.86;70.17;97459.00;4968579;28;20034;-36
2022/01/08 09:35:42;;;;;;;5.33;2.37;;;1.90;99.90;;;1.83;70.14;97467.13;4970627;28;20039;-36
2022/01/08 09:38:10;;;;;;;6.67;2.80;;;1.90;99.90;;;1.87;69.96;97458.91;4969105;28;20533;-36
2022/01/08 09:40:38;;;;;;;7.77;2.27;;;1.90;99.90;;;1.91;69.33;97451.63;4969001;28;20053;-36
2022/01/08 09:43:06;;;;;;;3.70;2.20;;;2.00;99.90;;;1.91;69.46;97456.88;4968428;28;20050;-36
2022/01/08 09:45:34;;;;;;;3.20;2.17;;;2.00;99.90;;;1.88;68.86;97460.59;4969408;28;20050;-36
2022/01/08 09:48:02;;;;;;;6.03;2.00;;;1.90;99.90;;;2.01;69.67;97460.50;4969787;28;20051;-36
2022/01/08 09:50:30;;;;;;;3.70;2.00;;;2.00;99.90;;;2.01;68.06;97468.38;4968736;28;20349;-36
2022/01/08 09:52:58;;;;;;;2.53;1.77;;;2.00;99.90;;;2.00;68.46;97476.38;4968521;28;20043;-36
2022/01/08 09:55:30;;;;;;;4.70;3.40;;;2.00;99.90;;;2.05;68.77;97484.75;4970546;28;20596;-36
2022/01/08 09:57:59;;;;;;;4.87;2.30;;;2.00;99.90;;;1.99;68.86;97472.91;4970168;28;20055;-36
2022/01/08 10:00:30;;;;;;;3.97;2.60;;;1.90;99.90;;;1.95;68.41;97471.47;4968837;28;20058;-36
2022/01/08 10:03:22;;;;;;;5.07;2.07;;;1.90;99.90;;;1.96;68.75;97481.88;4968460;28;20064;-36
2022/01/08 10:05:58;;;;;;;2.17;1.70;;;1.90;99.90;;;1.91;68.42;97475.25;4970038;28;20265;-36
2022/01/08 10:08:43;;;;;;;5.27;2.97;;;1.90;99.90;;;1.95;68.52;97477.53;4969391;28;20065;-36
2022/01/08 10:11:14;;;;;;;5.93;2.37;;;1.90;99.90;;;1.99;68.90;97483.41;4968979;28;20242;-36
2022/01/08 10:13:43;;;;;;;6.30;2.30;;;1.90;99.90;;;2.06;68.46;97489.06;4969451;28;20047;-36
2022/01/08 10:19:24;;;;;;;7.07;3.07;;;2.00;99.90;;;2.15;68.38;97489.25;4968493;28;20240;-36
2022/01/08 10:21:53;;;;;;;8.77;3.57;;;2.10;99.90;;;2.17;67.81;97489.09;4982808;28;20656;-36
2022/01/08 10:24:28;;;;;;;3.90;2.60;;;2.00;99.90;;;2.11;67.75;97479.91;4969103;28;20058;-36
2022/01/08 10:27:05;;;;;;;8.13;2.90;;;2.00;99.90;;;2.17;67.23;97482.09;4970438;28;20232;-36
2022/01/08 10:29:34;;;;;;;5.77;2.33;;;2.10;99.90;;;2.17;67.51;97481.22;4970227;28;20062;-36
2022/01/08 10:32:07;;;;;;;3.25;2.15;;;2.10;99.90;;;2.04;65.84;97472.59;4956770;28;20350;-36
2022/01/08 10:34:36;;;;;;;5.60;2.70;;;2.00;99.60;;;2.16;67.48;97479.56;4990622;28;20241;-36
2022/01/08 10:37:06;;;;;;;6.23;2.77;;;2.10;99.90;;;2.14;67.10;97484.91;4980237;28;20337;-36
2022/01/08 10:39:42;;;;;;;3.17;2.23;;;2.00;99.90;;;2.23;66.98;97480.78;4980517;28;20046;-36
2022/01/08 10:42:16;;;;;;;5.90;2.43;;;2.10;99.90;;;2.11;64.98;97474.66;5007767;28;20220;-36
2022/01/08 10:44:49;;;;;;;7.10;2.22;;;2.10;93.20;;;2.07;65.44;97474.97;4977319;28;20057;-36
2022/01/08 10:47:23;;;;;;;5.37;2.37;;;2.00;93.60;;;2.15;65.51;97467.38;5001200;28;20057;-36
2022/01/08 10:50:06;;;;;;;2.87;1.67;;;2.10;94.40;;;2.03;63.42;97469.09;4991015;28;20306;-36
2022/01/08 10:52:48;;;;;;;5.67;1.97;;;2.00;89.60;;;2.02;64.32;97477.94;4978065;28;20039;-36
2022/01/08 10:55:33;;;;;;;4.80;1.97;;;2.00;89.70;;;2.12;62.47;97467.63;4991848;28;20387;-36
2022/01/08 10:58:00;;;;;;;5.03;1.70;;;2.20;86.90;;;2.07;62.87;97480.22;4968283;28;20051;-36
2022/01/08 11:00:32;;;;;;;5.97;1.93;;;2.20;85.20;;;2.28;64.21;97470.75;4967804;28;20073;-38
2022/01/08 11:03:01;;;;;;;4.53;2.17;;;2.30;87.30;;;2.33;64.19;97463.41;4968060;28;20253;-37
2022/01/08 11:05:29;;;;;;;3.80;1.60;;;2.40;87.70;;;2.46;64.43;97463.31;4968690;28;20055;-37
2022/01/08 11:08:14;;;;;;;2.90;2.07;;;2.50;86.50;;;2.53;62.93;97458.44;4968739;28;20055;-37
2022/01/08 11:10:42;;;;;;;4.23;2.07;;;2.60;84.30;;;2.62;63.65;97454.25;4968488;28;20054;-36